Apollo, Pennsylvania
Current Conditions -  °F | °C
As of 6:15 AM on Wednesday 26 Nov 2014 (Local Time) from KLBE Reporting Station
Broken Clouds Broken Clouds  
Wind Chill: 26°   Ceiling: 15000
Heat Index: 32°   Visibility: 10mi
Dew Point: 28°   Wind: 7mph
Humidity: 87%   Direction: 80°E
Pressure: 30.06"   Gusts: NA
Location:  40.58°N, 79.57°W
Report Text: KLBE 261115Z 08006KT 10SM BKN150 00/M02 A3006 RMK FIRST
Loading
Personal Weather Stations






























Interactive Weather Map New forecast layout! Learn more

10-Day Weather Forecast

Advertisements
Track Severe Weather on mobile